sensor_id;sensor_type;location;lat;lon;timestamp;pressure;altitude;pressure_sealevel;temperature;humidity
48644;BME280;34928;37.302;-121.984;2023-02-02T00:00:57;101479.0;;;25.73;18.34
48644;BME280;34928;37.302;-121.984;2023-02-02T00:11:03;101474.0;;;25.85;18.26
48644;BME280;34928;37.302;-121.984;2023-02-02T00:21:07;101485.0;;;25.88;18.18
48644;BME280;34928;37.302;-121.984;2023-02-02T00:31:12;101501.0;;;25.94;18.10
48644;BME280;34928;37.302;-121.984;2023-02-02T00:41:18;101509.0;;;25.97;18.00
48644;BME280;34928;37.302;-121.984;2023-02-02T00:51:23;101514.0;;;25.68;18.01
48644;BME280;34928;37.302;-121.984;2023-02-02T01:01:27;101524.0;;;25.90;17.99
48644;BME280;34928;37.302;-121.984;2023-02-02T01:11:32;101532.0;;;25.90;17.93
48644;BME280;34928;37.302;-121.984;2023-02-02T01:21:37;101534.0;;;25.93;17.85
48644;BME280;34928;37.302;-121.984;2023-02-02T01:31:42;101538.0;;;25.74;17.77
48644;BME280;34928;37.302;-121.984;2023-02-02T01:41:48;101543.0;;;25.82;17.80
48644;BME280;34928;37.302;-121.984;2023-02-02T01:51:59;101552.0;;;25.81;17.90
48644;BME280;34928;37.302;-121.984;2023-02-02T02:02:03;101551.0;;;25.71;18.33
48644;BME280;34928;37.302;-121.984;2023-02-02T02:12:11;101562.0;;;26.41;18.13
48644;BME280;34928;37.302;-121.984;2023-02-02T02:22:18;101560.0;;;26.39;17.85
48644;BME280;34928;37.302;-121.984;2023-02-02T02:32:27;101560.0;;;26.54;17.61
48644;BME280;34928;37.302;-121.984;2023-02-02T02:42:42;101555.0;;;26.42;17.54
48644;BME280;34928;37.302;-121.984;2023-02-02T02:52:51;101548.0;;;26.72;17.55
48644;BME280;34928;37.302;-121.984;2023-02-02T03:03:06;101556.0;;;26.86;17.39
48644;BME280;34928;37.302;-121.984;2023-02-02T03:13:14;101565.0;;;26.85;17.86
48644;BME280;34928;37.302;-121.984;2023-02-02T03:23:17;101579.0;;;26.63;18.48
48644;BME280;34928;37.302;-121.984;2023-02-02T03:33:23;101583.0;;;26.53;18.98
48644;BME280;34928;37.302;-121.984;2023-02-02T03:43:28;101583.0;;;27.00;18.81
48644;BME280;34928;37.302;-121.984;2023-02-02T03:53:32;101595.0;;;26.81;18.87
48644;BME280;34928;37.302;-121.984;2023-02-02T04:03:38;101617.0;;;26.86;18.72
48644;BME280;34928;37.302;-121.984;2023-02-02T04:13:42;101630.0;;;27.13;18.63
48644;BME280;34928;37.302;-121.984;2023-02-02T04:23:47;101644.0;;;26.61;18.61
48644;BME280;34928;37.302;-121.984;2023-02-02T04:33:52;101634.0;;;26.99;18.28
48644;BME280;34928;37.302;-121.984;2023-02-02T04:43:57;101648.0;;;26.72;18.20
48644;BME280;34928;37.302;-121.984;2023-02-02T04:54:02;101654.0;;;27.00;17.95
48644;BME280;34928;37.302;-121.984;2023-02-02T05:04:07;101668.0;;;26.78;18.02
48644;BME280;34928;37.302;-121.984;2023-02-02T05:14:12;101672.0;;;27.12;17.88
48644;BME280;34928;37.302;-121.984;2023-02-02T05:24:17;101682.0;;;26.75;18.15
48644;BME280;34928;37.302;-121.984;2023-02-02T05:34:23;101682.0;;;26.77;18.08
48644;BME280;34928;37.302;-121.984;2023-02-02T05:44:27;101685.0;;;27.12;17.82
48644;BME280;34928;37.302;-121.984;2023-02-02T05:54:32;101691.0;;;26.87;17.83
48644;BME280;34928;37.302;-121.984;2023-02-02T06:04:37;101703.0;;;27.17;17.68
48644;BME280;34928;37.302;-121.984;2023-02-02T06:14:42;101706.0;;;27.27;18.53
48644;BME280;34928;37.302;-121.984;2023-02-02T06:24:47;101707.0;;;27.07;18.17
48644;BME280;34928;37.302;-121.984;2023-02-02T06:34:52;101710.0;;;26.96;17.89
48644;BME280;34928;37.302;-121.984;2023-02-02T06:44:57;101713.0;;;26.72;18.10
48644;BME280;34928;37.302;-121.984;2023-02-02T06:55:03;101714.0;;;27.22;18.41
48644;BME280;34928;37.302;-121.984;2023-02-02T07:05:08;101716.0;;;26.74;18.35
48644;BME280;34928;37.302;-121.984;2023-02-02T07:15:12;101714.0;;;26.57;18.21
48644;BME280;34928;37.302;-121.984;2023-02-02T07:25:18;101714.0;;;26.32;18.10
48644;BME280;34928;37.302;-121.984;2023-02-02T07:35:23;101720.0;;;26.63;17.98
48644;BME280;34928;37.302;-121.984;2023-02-02T07:45:27;101721.0;;;26.40;17.83
48644;BME280;34928;37.302;-121.984;2023-02-02T07:55:32;101720.0;;;26.30;18.05
48644;BME280;34928;37.302;-121.984;2023-02-02T08:05:37;101718.0;;;26.77;18.11
48644;BME280;34928;37.302;-121.984;2023-02-02T08:15:42;101709.0;;;26.64;18.22
48644;BME280;34928;37.302;-121.984;2023-02-02T08:25:48;101715.0;;;26.52;18.18
48644;BME280;34928;37.302;-121.984;2023-02-02T08:35:53;101716.0;;;26.92;18.01
48644;BME280;34928;37.302;-121.984;2023-02-02T08:45:57;101716.0;;;26.99;18.19
48644;BME280;34928;37.302;-121.984;2023-02-02T08:56:04;101710.0;;;26.79;17.68
48644;BME280;34928;37.302;-121.984;2023-02-02T09:06:10;101716.0;;;26.83;18.04
48644;BME280;34928;37.302;-121.984;2023-02-02T09:16:18;101714.0;;;26.54;17.02
48644;BME280;34928;37.302;-121.984;2023-02-02T09:26:25;101715.0;;;26.86;17.63
48644;BME280;34928;37.302;-121.984;2023-02-02T09:36:33;101720.0;;;26.76;17.78
48644;BME280;34928;37.302;-121.984;2023-02-02T09:46:46;101725.0;;;26.61;17.74
48644;BME280;34928;37.302;-121.984;2023-02-02T09:57:00;101733.0;;;26.45;17.83
48644;BME280;34928;37.302;-121.984;2023-02-02T10:07:11;101729.0;;;25.74;17.78
48644;BME280;34928;37.302;-121.984;2023-02-02T10:17:31;101729.0;;;25.79;17.53
48644;BME280;34928;37.302;-121.984;2023-02-02T10:27:39;101724.0;;;25.80;17.44
48644;BME280;34928;37.302;-121.984;2023-02-02T10:37:47;101714.0;;;25.43;17.42
48644;BME280;34928;37.302;-121.984;2023-02-02T10:47:52;101701.0;;;25.48;17.34
48644;BME280;34928;37.302;-121.984;2023-02-02T10:58:05;101698.0;;;25.23;17.33
48644;BME280;34928;37.302;-121.984;2023-02-02T11:08:15;101690.0;;;25.14;17.40
48644;BME280;34928;37.302;-121.984;2023-02-02T11:18:31;101699.0;;;24.57;17.44
48644;BME280;34928;37.302;-121.984;2023-02-02T11:28:37;101698.0;;;24.82;17.49
48644;BME280;34928;37.302;-121.984;2023-02-02T11:38:43;101700.0;;;24.66;17.47
48644;BME280;34928;37.302;-121.984;2023-02-02T11:48:52;101704.0;;;24.44;17.52
48644;BME280;34928;37.302;-121.984;2023-02-02T11:59:03;101708.0;;;24.39;17.49
48644;BME280;34928;37.302;-121.984;2023-02-02T12:09:12;101716.0;;;24.48;17.51
48644;BME280;34928;37.302;-121.984;2023-02-02T12:19:31;101719.0;;;24.03;17.55
48644;BME280;34928;37.302;-121.984;2023-02-02T12:29:59;101721.0;;;23.81;17.60
48644;BME280;34928;37.302;-121.984;2023-02-02T12:40:23;101724.0;;;23.64;17.63
48644;BME280;34928;37.302;-121.984;2023-02-02T12:50:38;101727.0;;;23.79;17.62
48644;BME280;34928;37.302;-121.984;2023-02-02T13:11:05;101725.0;;;23.75;17.66
48644;BME280;34928;37.302;-121.984;2023-02-02T13:21:15;101725.0;;;23.52;17.72
48644;BME280;34928;37.302;-121.984;2023-02-02T13:31:24;101718.0;;;23.35;17.75
48644;BME280;34928;37.302;-121.984;2023-02-02T13:41:33;101716.0;;;23.19;16.91
48644;BME280;34928;37.302;-121.984;2023-02-02T13:51:47;101723.0;;;23.95;18.19
48644;BME280;34928;37.302;-121.984;2023-02-02T14:01:52;101714.0;;;24.18;17.94
48644;BME280;34928;37.302;-121.984;2023-02-02T14:12:05;101712.0;;;24.50;18.14
48644;BME280;34928;37.302;-121.984;2023-02-02T14:32:41;101710.0;;;24.84;18.04
48644;BME280;34928;37.302;-121.984;2023-02-02T14:43:04;101706.0;;;25.17;18.00
48644;BME280;34928;37.302;-121.984;2023-02-02T14:53:21;101707.0;;;25.17;17.94
48644;BME280;34928;37.302;-121.984;2023-02-02T15:03:47;101711.0;;;25.48;17.87
48644;BME280;34928;37.302;-121.984;2023-02-02T15:14:01;101710.0;;;25.69;17.78
48644;BME280;34928;37.302;-121.984;2023-02-02T15:24:17;101716.0;;;25.71;16.99
48644;BME280;34928;37.302;-121.984;2023-02-02T15:34:25;101726.0;;;26.22;17.74
48644;BME280;34928;37.302;-121.984;2023-02-02T15:44:37;101729.0;;;25.71;15.78
48644;BME280;34928;37.302;-121.984;2023-02-02T15:54:51;101742.0;;;25.95;17.08
48644;BME280;34928;37.302;-121.984;2023-02-02T16:04:57;101745.0;;;26.36;17.03
48644;BME280;34928;37.302;-121.984;2023-02-02T16:15:03;101747.0;;;25.95;16.35
48644;BME280;34928;37.302;-121.984;2023-02-02T16:25:21;101761.0;;;25.68;16.47
48644;BME280;34928;37.302;-121.984;2023-02-02T16:35:32;101774.0;;;25.45;16.51
48644;BME280;34928;37.302;-121.984;2023-02-02T16:45:45;101780.0;;;25.25;16.55
48644;BME280;34928;37.302;-121.984;2023-02-02T16:55:52;101783.0;;;25.43;16.54
48644;BME280;34928;37.302;-121.984;2023-02-02T17:05:58;101796.0;;;25.28;16.59
48644;BME280;34928;37.302;-121.984;2023-02-02T17:16:02;101795.0;;;24.98;16.76
48644;BME280;34928;37.302;-121.984;2023-02-02T17:26:08;101806.0;;;24.89;16.92
48644;BME280;34928;37.302;-121.984;2023-02-02T17:36:12;101811.0;;;24.94;16.88
48644;BME280;34928;37.302;-121.984;2023-02-02T17:46:18;101809.0;;;24.77;16.89
48644;BME280;34928;37.302;-121.984;2023-02-02T17:56:22;101819.0;;;24.67;16.91
48644;BME280;34928;37.302;-121.984;2023-02-02T18:06:27;101817.0;;;24.92;16.76
48644;BME280;34928;37.302;-121.984;2023-02-02T18:16:33;101812.0;;;24.93;16.74
48644;BME280;34928;37.302;-121.984;2023-02-02T18:26:37;101807.0;;;24.89;16.77
48644;BME280;34928;37.302;-121.984;2023-02-02T18:36:47;101809.0;;;24.70;16.95
48644;BME280;34928;37.302;-121.984;2023-02-02T18:46:52;101790.0;;;24.66;16.96
48644;BME280;34928;37.302;-121.984;2023-02-02T18:56:57;101777.0;;;24.63;17.00
48644;BME280;34928;37.302;-121.984;2023-02-02T19:07:02;101770.0;;;24.50;17.12
48644;BME280;34928;37.302;-121.984;2023-02-02T19:17:16;101766.0;;;24.56;17.24
48644;BME280;34928;37.302;-121.984;2023-02-02T19:27:24;101767.0;;;24.63;17.34
48644;BME280;34928;37.302;-121.984;2023-02-02T19:37:29;101755.0;;;24.64;17.64
48644;BME280;34928;37.302;-121.984;2023-02-02T19:47:33;101745.0;;;24.64;17.83
48644;BME280;34928;37.302;-121.984;2023-02-02T19:57:42;101728.0;;;24.62;17.88
48644;BME280;34928;37.302;-121.984;2023-02-02T20:17:54;101696.0;;;24.94;17.79
48644;BME280;34928;37.302;-121.984;2023-02-02T20:27:58;101674.0;;;24.61;17.92
48644;BME280;34928;37.302;-121.984;2023-02-02T20:38:18;101650.0;;;24.30;18.01
48644;BME280;34928;37.302;-121.984;2023-02-02T20:48:22;101637.0;;;24.38;18.20
48644;BME280;34928;37.302;-121.984;2023-02-02T20:58:27;101616.0;;;24.54;18.17
48644;BME280;34928;37.302;-121.984;2023-02-02T21:08:33;101606.0;;;24.76;18.11
48644;BME280;34928;37.302;-121.984;2023-02-02T21:18:37;101593.0;;;24.64;18.13
48644;BME280;34928;37.302;-121.984;2023-02-02T21:28:42;101568.0;;;24.81;18.23
48644;BME280;34928;37.302;-121.984;2023-02-02T21:38:47;101563.0;;;24.67;18.22
48644;BME280;34928;37.302;-121.984;2023-02-02T21:48:52;101561.0;;;24.60;18.39
48644;BME280;34928;37.302;-121.984;2023-02-02T21:58:58;101535.0;;;24.90;18.48
48644;BME280;34928;37.302;-121.984;2023-02-02T22:09:14;101520.0;;;25.09;18.47
48644;BME280;34928;37.302;-121.984;2023-02-02T22:19:27;101514.0;;;25.32;18.46
48644;BME280;34928;37.302;-121.984;2023-02-02T22:29:34;101512.0;;;25.46;18.51
48644;BME280;34928;37.302;-121.984;2023-02-02T22:39:37;101489.0;;;25.02;18.65
48644;BME280;34928;37.302;-121.984;2023-02-02T22:49:43;101518.0;;;25.12;18.71
48644;BME280;34928;37.302;-121.984;2023-02-02T22:59:47;101525.0;;;25.22;18.67
48644;BME280;34928;37.302;-121.984;2023-02-02T23:09:53;101527.0;;;25.11;18.78
48644;BME280;34928;37.302;-121.984;2023-02-02T23:19:58;101524.0;;;25.22;18.71
48644;BME280;34928;37.302;-121.984;2023-02-02T23:30:04;101535.0;;;25.30;18.72
48644;BME280;34928;37.302;-121.984;2023-02-02T23:40:08;101556.0;;;25.34;18.70
48644;BME280;34928;37.302;-121.984;2023-02-02T23:50:13;101561.0;;;25.83;18.67
